Time,TemperatureF,DewpointF,PressureIn,WindDirection,WindDirectionDegrees,WindSpeedMPH,WindSpeedGustMPH,Humidity,HourlyPrecipIn,Conditions,Clouds,dailyrainin,SoftwareType,DateUTC
2013-03-28 00:00:00,35.3,16.3,30.26,NW,311,6.5,-999.0,45,0.00,,,0.00,SSEC-RIG,2013-03-28 05:00:00,
2013-03-28 00:05:00,35.1,16.6,30.26,NW,309,5.3,-999.0,45,0.00,,,0.00,SSEC-RIG,2013-03-28 05:05:00,
2013-03-28 00:10:00,35.0,16.7,30.26,WNW,303,5.7,-999.0,46,0.00,,,0.00,SSEC-RIG,2013-03-28 05:10:00,
2013-03-28 00:15:00,34.9,16.5,30.26,NW,306,6.7,-999.0,46,0.00,,,0.00,SSEC-RIG,2013-03-28 05:15:00,
2013-03-28 00:20:00,34.8,16.4,30.26,NW,304,7.9,-999.0,46,0.00,,,0.00,SSEC-RIG,2013-03-28 05:20:00,
2013-03-28 00:30:00,34.6,16.4,30.26,NW,305,7.5,-999.0,46,0.00,,,0.00,SSEC-RIG,2013-03-28 05:30:00,
2013-03-28 00:35:00,34.7,16.3,30.26,NW,307,7.9,-999.0,46,0.00,,,0.00,SSEC-RIG,2013-03-28 05:35:00,
2013-03-28 00:40:00,34.6,16.4,30.27,NW,308,7.7,-999.0,46,0.00,,,0.00,SSEC-RIG,2013-03-28 05:40:00,
2013-03-28 00:45:00,34.6,16.3,30.26,NW,308,7.6,-999.0,46,0.00,,,0.00,SSEC-RIG,2013-03-28 05:45:00,
2013-03-28 00:50:00,34.4,16.4,30.27,NW,312,7.7,-999.0,47,0.00,,,0.00,SSEC-RIG,2013-03-28 05:50:00,
2013-03-28 00:55:00,34.4,16.4,30.27,NW,308,7.7,-999.0,46,0.00,,,0.00,SSEC-RIG,2013-03-28 05:55:00,
2013-03-28 01:00:00,34.4,16.3,30.27,NW,311,8.3,-999.0,46,0.00,,,0.00,SSEC-RIG,2013-03-28 06:00:00,
2013-03-28 01:05:00,34.4,16.3,30.27,NW,308,7.7,-999.0,46,0.00,,,0.00,SSEC-RIG,2013-03-28 06:05:00,
2013-03-28 01:10:00,34.4,16.3,30.27,NW,307,7.4,-999.0,46,0.00,,,0.00,SSEC-RIG,2013-03-28 06:10:00,
2013-03-28 01:15:00,34.3,16.3,30.27,NW,306,7.4,-999.0,46,0.00,,,0.00,SSEC-RIG,2013-03-28 06:15:00,
2013-03-28 01:20:00,34.3,16.3,30.27,WNW,302,8.0,-999.0,47,0.00,,,0.00,SSEC-RIG,2013-03-28 06:20:00,
2013-03-28 01:25:00,34.3,16.2,30.27,NW,312,8.1,-999.0,46,0.00,,,0.00,SSEC-RIG,2013-03-28 06:25:00,
2013-03-28 01:30:00,34.3,16.3,30.27,NW,309,8.0,-999.0,46,0.00,,,0.00,SSEC-RIG,2013-03-28 06:30:00,
2013-03-28 01:35:00,34.1,16.3,30.27,NW,307,8.1,-999.0,47,0.00,,,0.00,SSEC-RIG,2013-03-28 06:35:00,
2013-03-28 01:40:00,34.0,16.4,30.27,NW,305,8.4,-999.0,47,0.00,,,0.00,SSEC-RIG,2013-03-28 06:40:00,
2013-03-28 01:45:00,34.0,16.4,30.27,NW,309,6.9,-999.0,47,0.00,,,0.00,SSEC-RIG,2013-03-28 06:45:00,
2013-03-28 01:50:00,33.7,16.7,30.27,WNW,302,6.3,-999.0,49,0.00,,,0.00,SSEC-RIG,2013-03-28 06:50:00,
2013-03-28 01:55:00,33.5,16.7,30.27,NW,305,7.1,-999.0,49,0.00,,,0.00,SSEC-RIG,2013-03-28 06:55:00,
2013-03-28 02:00:00,33.5,16.7,30.27,NW,309,7.1,-999.0,49,0.00,,,0.00,SSEC-RIG,2013-03-28 07:00:00,
2013-03-28 02:05:00,33.3,16.7,30.27,NW,308,6.5,-999.0,49,0.00,,,0.00,SSEC-RIG,2013-03-28 07:05:00,
2013-03-28 02:10:00,33.4,16.6,30.27,NW,304,7.7,-999.0,49,0.00,,,0.00,SSEC-RIG,2013-03-28 07:10:00,
2013-03-28 02:15:00,33.2,16.7,30.27,NW,305,7.9,-999.0,49,0.00,,,0.00,SSEC-RIG,2013-03-28 07:15:00,
2013-03-28 02:20:00,33.3,16.5,30.27,NW,305,9.4,-999.0,49,0.00,,,0.00,SSEC-RIG,2013-03-28 07:20:00,
2013-03-28 02:25:00,33.3,16.4,30.27,NW,306,9.3,-999.0,49,0.00,,,0.00,SSEC-RIG,2013-03-28 07:25:00,
2013-03-28 02:30:00,33.4,16.3,30.27,NW,308,9.8,-999.0,48,0.00,,,0.00,SSEC-RIG,2013-03-28 07:30:00,
2013-03-28 02:35:00,33.2,16.3,30.27,NW,308,10.1,-999.0,48,0.00,,,0.00,SSEC-RIG,2013-03-28 07:35:00,
2013-03-28 02:40:00,33.1,16.3,30.27,NW,306,8.8,-999.0,49,0.00,,,0.00,SSEC-RIG,2013-03-28 07:40:00,
2013-03-28 02:45:00,33.1,16.4,30.27,NW,307,9.1,-999.0,49,0.00,,,0.00,SSEC-RIG,2013-03-28 07:45:00,
2013-03-28 02:55:00,32.9,16.3,30.27,NW,309,9.1,-999.0,49,0.00,,,0.00,SSEC-RIG,2013-03-28 07:55:00,
2013-03-28 03:00:00,32.9,16.1,30.27,NW,306,8.7,-999.0,49,0.00,,,0.00,SSEC-RIG,2013-03-28 08:00:00,
2013-03-28 03:05:00,33.1,15.9,30.27,NW,313,8.9,-999.0,48,0.00,,,0.00,SSEC-RIG,2013-03-28 08:05:00,
2013-03-28 03:10:00,33.2,15.8,30.27,NW,312,9.5,-999.0,48,0.00,,,0.00,SSEC-RIG,2013-03-28 08:10:00,
2013-03-28 03:15:00,33.2,15.8,30.27,NW,314,9.6,-999.0,48,0.00,,,0.00,SSEC-RIG,2013-03-28 08:15:00,
2013-03-28 03:20:00,33.6,15.3,30.27,NW,312,11.3,-999.0,46,0.00,,,0.00,SSEC-RIG,2013-03-28 08:20:00,
2013-03-28 03:25:00,33.7,15.1,30.27,NW,315,11.1,-999.0,45,0.00,,,0.00,SSEC-RIG,2013-03-28 08:25:00,
2013-03-28 03:30:00,33.7,15.1,30.27,NW,316,11.3,-999.0,45,0.00,,,0.00,SSEC-RIG,2013-03-28 08:30:00,
2013-03-28 03:35:00,33.6,14.9,30.27,NW,315,13.4,16.3,45,0.00,,,0.00,SSEC-RIG,2013-03-28 08:35:00,
2013-03-28 03:40:00,33.5,14.9,30.27,NW,316,12.9,-999.0,45,0.00,,,0.00,SSEC-RIG,2013-03-28 08:40:00,
2013-03-28 03:45:00,33.5,14.8,30.27,NW,318,13.0,-999.0,45,0.00,,,0.00,SSEC-RIG,2013-03-28 08:45:00,
2013-03-28 03:50:00,33.6,14.7,30.27,NW,313,12.1,-999.0,45,0.00,,,0.00,SSEC-RIG,2013-03-28 08:50:00,
2013-03-28 03:55:00,33.5,14.8,30.27,NW,316,11.6,-999.0,45,0.00,,,0.00,SSEC-RIG,2013-03-28 08:55:00,
2013-03-28 04:00:00,33.6,14.7,30.27,NW,314,11.2,-999.0,45,0.00,,,0.00,SSEC-RIG,2013-03-28 09:00:00,
2013-03-28 04:05:00,33.3,14.9,30.27,NW,313,10.2,-999.0,46,0.00,,,0.00,SSEC-RIG,2013-03-28 09:05:00,
2013-03-28 04:10:00,33.2,15.0,30.27,NW,310,9.7,-999.0,46,0.00,,,0.00,SSEC-RIG,2013-03-28 09:10:00,
2013-03-28 04:15:00,33.1,15.1,30.27,NW,313,9.4,-999.0,46,0.00,,,0.00,SSEC-RIG,2013-03-28 09:15:00,
2013-03-28 04:20:00,33.0,15.2,30.27,NW,312,9.2,-999.0,47,0.00,,,0.00,SSEC-RIG,2013-03-28 09:20:00,
2013-03-28 04:25:00,33.1,15.0,30.27,NW,313,8.7,-999.0,46,0.00,,,0.00,SSEC-RIG,2013-03-28 09:25:00,
2013-03-28 04:30:00,33.0,15.1,30.27,NW,311,9.0,-999.0,47,0.00,,,0.00,SSEC-RIG,2013-03-28 09:30:00,
2013-03-28 04:35:00,32.9,15.0,30.27,NW,315,9.6,-999.0,46,0.00,,,0.00,SSEC-RIG,2013-03-28 09:35:00,
2013-03-28 04:40:00,32.7,15.0,30.27,NW,316,9.5,-999.0,47,0.00,,,0.00,SSEC-RIG,2013-03-28 09:40:00,
2013-03-28 04:45:00,32.7,15.0,30.27,NW,315,9.9,-999.0,47,0.00,,,0.00,SSEC-RIG,2013-03-28 09:45:00,
2013-03-28 04:50:00,32.6,15.0,30.27,NW,312,9.5,-999.0,47,0.00,,,0.00,SSEC-RIG,2013-03-28 09:50:00,
2013-03-28 04:55:00,32.6,14.9,30.27,NW,313,10.4,-999.0,47,0.00,,,0.00,SSEC-RIG,2013-03-28 09:55:00,
2013-03-28 05:00:00,32.5,14.9,30.27,NW,313,10.3,-999.0,47,0.00,,,0.00,SSEC-RIG,2013-03-28 10:00:00,
2013-03-28 05:05:00,32.5,14.8,30.27,NW,314,10.4,-999.0,47,0.00,,,0.00,SSEC-RIG,2013-03-28 10:05:00,
2013-03-28 05:10:00,32.6,14.8,30.27,NW,315,9.9,-999.0,47,0.00,,,0.00,SSEC-RIG,2013-03-28 10:10:00,
2013-03-28 05:15:00,32.5,14.9,30.27,NW,312,9.3,-999.0,47,0.00,,,0.00,SSEC-RIG,2013-03-28 10:15:00,
2013-03-28 05:20:00,32.6,14.9,30.27,NW,314,9.1,-999.0,47,0.00,,,0.00,SSEC-RIG,2013-03-28 10:20:00,
2013-03-28 05:30:00,32.3,14.9,30.27,NW,315,9.9,-999.0,47,0.00,,,0.00,SSEC-RIG,2013-03-28 10:30:00,
2013-03-28 05:35:00,32.0,15.0,30.27,NW,317,10.8,-999.0,48,0.00,,,0.00,SSEC-RIG,2013-03-28 10:35:00,
2013-03-28 05:40:00,31.9,15.2,30.27,NW,312,8.7,-999.0,49,0.00,,,0.00,SSEC-RIG,2013-03-28 10:40:00,
2013-03-28 05:45:00,31.9,15.2,30.27,NW,313,8.3,-999.0,49,0.00,,,0.00,SSEC-RIG,2013-03-28 10:45:00,
2013-03-28 05:50:00,31.8,15.2,30.27,NW,314,9.0,-999.0,49,0.00,,,0.00,SSEC-RIG,2013-03-28 10:50:00,
2013-03-28 05:55:00,31.7,15.3,30.27,NW,312,8.5,-999.0,49,0.00,,,0.00,SSEC-RIG,2013-03-28 10:55:00,
2013-03-28 06:00:00,31.5,15.3,30.28,NW,315,9.5,-999.0,50,0.00,,,0.00,SSEC-RIG,2013-03-28 11:00:00,
2013-03-28 06:05:00,31.2,15.2,30.28,NW,317,10.4,-999.0,50,0.00,,,0.00,SSEC-RIG,2013-03-28 11:05:00,
2013-03-28 06:10:00,31.0,15.3,30.28,NW,317,9.4,-999.0,51,0.00,,,0.00,SSEC-RIG,2013-03-28 11:10:00,
2013-03-28 06:20:00,30.7,15.3,30.28,NW,319,9.6,-999.0,51,0.00,,,0.00,SSEC-RIG,2013-03-28 11:20:00,
2013-03-28 06:25:00,30.5,15.5,30.28,NW,321,9.2,-999.0,53,0.00,,,0.00,SSEC-RIG,2013-03-28 11:25:00,
2013-03-28 06:30:00,30.3,15.7,30.28,NW,326,7.7,-999.0,53,0.00,,,0.00,SSEC-RIG,2013-03-28 11:30:00,
2013-03-28 06:35:00,30.2,15.8,30.28,NW,325,8.1,-999.0,54,0.00,,,0.00,SSEC-RIG,2013-03-28 11:35:00,
2013-03-28 06:40:00,30.1,15.9,30.28,NNW,327,7.5,-999.0,54,0.00,,,0.00,SSEC-RIG,2013-03-28 11:40:00,
2013-03-28 06:45:00,30.0,16.0,30.28,NNW,328,8.1,-999.0,54,0.00,,,0.00,SSEC-RIG,2013-03-28 11:45:00,
2013-03-28 06:50:00,29.9,16.0,30.28,NNW,330,7.5,-999.0,55,0.00,,,0.00,SSEC-RIG,2013-03-28 11:50:00,
2013-03-28 07:00:00,29.8,16.2,30.28,NNW,332,6.5,-999.0,55,0.00,,,0.00,SSEC-RIG,2013-03-28 12:00:00,
2013-03-28 07:05:00,29.9,16.2,30.28,NNW,334,6.4,-999.0,56,0.00,,,0.00,SSEC-RIG,2013-03-28 12:05:00,
2013-03-28 07:10:00,30.0,16.2,30.28,NNW,330,6.7,-999.0,55,0.00,,,0.00,SSEC-RIG,2013-03-28 12:10:00,
2013-03-28 07:15:00,30.1,16.1,30.28,NNW,329,7.0,-999.0,55,0.00,,,0.00,SSEC-RIG,2013-03-28 12:15:00,
2013-03-28 07:20:00,30.1,16.0,30.28,NW,326,7.6,-999.0,54,0.00,,,0.00,SSEC-RIG,2013-03-28 12:20:00,
2013-03-28 07:25:00,30.1,16.0,30.28,NW,325,7.5,-999.0,54,0.00,,,0.00,SSEC-RIG,2013-03-28 12:25:00,
2013-03-28 07:30:00,30.2,16.1,30.28,NNW,327,7.1,-999.0,54,0.00,,,0.00,SSEC-RIG,2013-03-28 12:30:00,
2013-03-28 07:35:00,30.2,16.2,30.28,NNW,335,7.1,-999.0,55,0.00,,,0.00,SSEC-RIG,2013-03-28 12:35:00,
2013-03-28 07:40:00,30.4,16.0,30.28,NNW,331,7.5,-999.0,54,0.00,,,0.00,SSEC-RIG,2013-03-28 12:40:00,
2013-03-28 07:45:00,30.5,16.1,30.28,NNW,331,7.5,-999.0,54,0.00,,,0.00,SSEC-RIG,2013-03-28 12:45:00,
2013-03-28 07:50:00,30.5,16.1,30.29,NNW,333,7.8,-999.0,54,0.00,,,0.00,SSEC-RIG,2013-03-28 12:50:00,
2013-03-28 07:55:00,30.6,16.2,30.29,NNW,337,7.0,-999.0,54,0.00,,,0.00,SSEC-RIG,2013-03-28 12:55:00,
2013-03-28 08:00:00,30.6,16.3,30.29,NNW,338,6.7,-999.0,54,0.00,,,0.00,SSEC-RIG,2013-03-28 13:00:00,
2013-03-28 08:05:00,30.7,16.4,30.29,NNW,340,6.6,-999.0,54,0.00,,,0.00,SSEC-RIG,2013-03-28 13:05:00,
2013-03-28 08:10:00,30.8,16.6,30.29,NNW,334,6.1,-999.0,54,0.00,,,0.00,SSEC-RIG,2013-03-28 13:10:00,
2013-03-28 08:15:00,30.7,16.3,30.29,NNW,331,7.4,-999.0,54,0.00,,,0.00,SSEC-RIG,2013-03-28 13:15:00,
2013-03-28 08:20:00,30.7,16.2,30.29,NNW,328,7.8,-999.0,54,0.00,,,0.00,SSEC-RIG,2013-03-28 13:20:00,
2013-03-28 08:25:00,30.9,16.2,30.30,NNW,331,7.1,-999.0,53,0.00,,,0.00,SSEC-RIG,2013-03-28 13:25:00,
2013-03-28 08:30:00,31.0,16.3,30.30,NNW,329,6.8,-999.0,53,0.00,,,0.00,SSEC-RIG,2013-03-28 13:30:00,
2013-03-28 08:35:00,31.1,16.4,30.30,NNW,331,7.1,-999.0,53,0.00,,,0.00,SSEC-RIG,2013-03-28 13:35:00,
2013-03-28 08:40:00,31.2,16.5,30.30,NNW,330,6.5,-999.0,53,0.00,,,0.00,SSEC-RIG,2013-03-28 13:40:00,
2013-03-28 08:45:00,31.2,16.5,30.30,NNW,332,6.8,-999.0,53,0.00,,,0.00,SSEC-RIG,2013-03-28 13:45:00,
2013-03-28 08:55:00,31.6,16.7,30.30,NNW,338,6.4,-999.0,53,0.00,,,0.00,SSEC-RIG,2013-03-28 13:55:00,
2013-03-28 09:00:00,32.1,16.8,30.30,NNW,340,6.3,-999.0,52,0.00,,,0.00,SSEC-RIG,2013-03-28 14:00:00,
2013-03-28 09:05:00,32.2,16.9,30.30,NNW,340,5.7,-999.0,52,0.00,,,0.00,SSEC-RIG,2013-03-28 14:05:00,
2013-03-28 09:10:00,32.4,16.9,30.30,NNW,338,6.6,-999.0,52,0.00,,,0.00,SSEC-RIG,2013-03-28 14:10:00,
2013-03-28 09:20:00,33.0,17.4,30.30,NNW,345,6.6,-999.0,51,0.00,,,0.00,SSEC-RIG,2013-03-28 14:20:00,
2013-03-28 09:25:00,33.1,17.4,30.30,North,350,6.8,-999.0,51,0.00,,,0.00,SSEC-RIG,2013-03-28 14:25:00,
2013-03-28 09:30:00,32.9,17.0,30.29,North,351,7.8,-999.0,51,0.00,,,0.00,SSEC-RIG,2013-03-28 14:30:00,
2013-03-28 09:35:00,32.9,17.3,30.30,North,355,7.4,-999.0,51,0.00,,,0.00,SSEC-RIG,2013-03-28 14:35:00,
2013-03-28 09:40:00,32.7,17.5,30.30,North,356,6.6,-999.0,52,0.00,,,0.00,SSEC-RIG,2013-03-28 14:40:00,
2013-03-28 09:45:00,32.9,18.0,30.30,North,353,6.0,-999.0,53,0.00,,,0.00,SSEC-RIG,2013-03-28 14:45:00,
2013-03-28 09:50:00,33.3,18.2,30.30,North,350,5.4,-999.0,53,0.00,,,0.00,SSEC-RIG,2013-03-28 14:50:00,
2013-03-28 09:55:00,33.4,18.3,30.30,North,350,5.5,-999.0,52,0.00,,,0.00,SSEC-RIG,2013-03-28 14:55:00,
2013-03-28 10:00:00,33.6,18.4,30.30,North,351,6.3,-999.0,52,0.00,,,0.00,SSEC-RIG,2013-03-28 15:00:00,
2013-03-28 10:05:00,33.8,18.8,30.30,North,358,5.0,-999.0,53,0.00,,,0.00,SSEC-RIG,2013-03-28 15:05:00,
2013-03-28 10:10:00,34.1,18.5,30.30,NNW,346,4.6,-999.0,52,0.00,,,0.00,SSEC-RIG,2013-03-28 15:10:00,
2013-03-28 10:15:00,34.3,18.6,30.30,NNW,347,4.0,-999.0,51,0.00,,,0.00,SSEC-RIG,2013-03-28 15:15:00,
2013-03-28 10:20:00,34.6,18.5,30.30,NNW,341,3.7,-999.0,50,0.00,,,0.00,SSEC-RIG,2013-03-28 15:20:00,
2013-03-28 10:25:00,34.8,18.1,30.30,NNW,346,4.2,-999.0,49,0.00,,,0.00,SSEC-RIG,2013-03-28 15:25:00,
2013-03-28 10:30:00,35.2,17.8,30.30,North,350,4.1,-999.0,48,0.00,,,0.00,SSEC-RIG,2013-03-28 15:30:00,
2013-03-28 10:35:00,36.2,17.3,30.30,North,1,4.6,-999.0,45,0.00,,,0.00,SSEC-RIG,2013-03-28 15:35:00,
2013-03-28 10:40:00,36.2,16.9,30.30,NNW,347,4.3,-999.0,44,0.00,,,0.00,SSEC-RIG,2013-03-28 15:40:00,
2013-03-28 10:50:00,36.4,15.9,30.31,North,351,5.1,-999.0,42,0.00,,,0.00,SSEC-RIG,2013-03-28 15:50:00,
2013-03-28 10:55:00,36.8,16.3,30.31,North,353,4.9,-999.0,42,0.00,,,0.00,SSEC-RIG,2013-03-28 15:55:00,
2013-03-28 11:00:00,37.2,16.4,30.31,North,352,4.4,-999.0,42,0.00,,,0.00,SSEC-RIG,2013-03-28 16:00:00,
2013-03-28 11:05:00,37.4,16.2,30.31,North,4,5.3,-999.0,41,0.00,,,0.00,SSEC-RIG,2013-03-28 16:05:00,
2013-03-28 11:10:00,37.3,15.8,30.31,North,357,6.5,-999.0,40,0.00,,,0.00,SSEC-RIG,2013-03-28 16:10:00,
2013-03-28 11:15:00,37.6,16.9,30.31,NNW,345,4.3,-999.0,42,0.00,,,0.00,SSEC-RIG,2013-03-28 16:15:00,
2013-03-28 11:20:00,37.8,17.2,30.31,North,352,4.2,-999.0,42,0.00,,,0.00,SSEC-RIG,2013-03-28 16:20:00,
2013-03-28 11:25:00,37.9,16.7,30.31,North,351,4.9,-999.0,41,0.00,,,0.00,SSEC-RIG,2013-03-28 16:25:00,
2013-03-28 11:30:00,37.9,16.2,30.31,NNW,344,5.2,-999.0,40,0.00,,,0.00,SSEC-RIG,2013-03-28 16:30:00,
2013-03-28 11:35:00,37.9,16.1,30.31,NNW,336,5.2,-999.0,40,0.00,,,0.00,SSEC-RIG,2013-03-28 16:35:00,
2013-03-28 11:40:00,38.3,16.3,30.31,NNW,343,4.7,-999.0,40,0.00,,,0.00,SSEC-RIG,2013-03-28 16:40:00,
2013-03-28 11:45:00,38.0,15.7,30.31,North,355,5.9,-999.0,39,0.00,,,0.00,SSEC-RIG,2013-03-28 16:45:00,
2013-03-28 11:50:00,38.5,15.6,30.31,North,352,5.7,-999.0,38,0.00,,,0.00,SSEC-RIG,2013-03-28 16:50:00,
2013-03-28 12:00:00,38.7,15.4,30.31,NNW,348,6.4,-999.0,37,0.00,,,0.00,SSEC-RIG,2013-03-28 17:00:00,
2013-03-28 12:05:00,38.8,15.6,30.31,NNW,347,5.9,-999.0,38,0.00,,,0.00,SSEC-RIG,2013-03-28 17:05:00,
2013-03-28 12:10:00,38.9,15.7,30.31,NNW,337,4.4,-999.0,38,0.00,,,0.00,SSEC-RIG,2013-03-28 17:10:00,
2013-03-28 12:15:00,39.0,15.1,30.31,NNW,339,5.3,-999.0,36,0.00,,,0.00,SSEC-RIG,2013-03-28 17:15:00,
2013-03-28 12:20:00,39.0,15.1,30.31,NNW,341,5.5,-999.0,37,0.00,,,0.00,SSEC-RIG,2013-03-28 17:20:00,
2013-03-28 12:25:00,39.0,15.1,30.31,North,349,6.1,-999.0,36,0.00,,,0.00,SSEC-RIG,2013-03-28 17:25:00,
2013-03-28 12:30:00,39.3,15.2,30.31,North,353,6.2,-999.0,36,0.00,,,0.00,SSEC-RIG,2013-03-28 17:30:00,
2013-03-28 12:35:00,39.7,15.4,30.30,North,356,4.7,-999.0,36,0.00,,,0.00,SSEC-RIG,2013-03-28 17:35:00,
2013-03-28 12:40:00,39.4,15.1,30.30,North,349,6.2,-999.0,36,0.00,,,0.00,SSEC-RIG,2013-03-28 17:40:00,
2013-03-28 12:45:00,39.6,15.2,30.30,North,353,6.3,-999.0,36,0.00,,,0.00,SSEC-RIG,2013-03-28 17:45:00,
2013-03-28 12:50:00,39.4,15.0,30.30,North,357,5.3,-999.0,36,0.00,,,0.00,SSEC-RIG,2013-03-28 17:50:00,
2013-03-28 12:55:00,39.6,15.0,30.30,North,355,5.8,-999.0,35,0.00,,,0.00,SSEC-RIG,2013-03-28 17:55:00,
2013-03-28 13:00:00,39.6,14.5,30.30,North,359,5.9,-999.0,35,0.00,,,0.00,SSEC-RIG,2013-03-28 18:00:00,
2013-03-28 13:05:00,39.6,13.9,30.30,North,357,5.5,-999.0,34,0.00,,,0.00,SSEC-RIG,2013-03-28 18:05:00,
2013-03-28 13:10:00,39.9,14.4,30.29,North,2,6.0,-999.0,34,0.00,,,0.00,SSEC-RIG,2013-03-28 18:10:00,
2013-03-28 13:15:00,39.9,14.2,30.29,North,357,6.3,-999.0,34,0.00,,,0.00,SSEC-RIG,2013-03-28 18:15:00,
2013-03-28 13:20:00,39.6,13.4,30.30,North,354,6.7,-999.0,33,0.00,,,0.00,SSEC-RIG,2013-03-28 18:20:00,
2013-03-28 13:25:00,39.8,13.4,30.30,North,2,6.6,-999.0,33,0.00,,,0.00,SSEC-RIG,2013-03-28 18:25:00,
2013-03-28 13:35:00,40.2,13.6,30.29,North,11,7.2,-999.0,33,0.00,,,0.00,SSEC-RIG,2013-03-28 18:35:00,
2013-03-28 13:40:00,40.0,13.0,30.29,North,4,8.0,-999.0,32,0.00,,,0.00,SSEC-RIG,2013-03-28 18:40:00,
2013-03-28 13:50:00,40.8,13.0,30.29,North,11,6.5,-999.0,31,0.00,,,0.00,SSEC-RIG,2013-03-28 18:50:00,
2013-03-28 13:55:00,41.2,13.2,30.29,North,3,5.2,-999.0,31,0.00,,,0.00,SSEC-RIG,2013-03-28 18:55:00,
2013-03-28 14:00:00,41.1,13.1,30.29,NNE,24,5.3,-999.0,31,0.00,,,0.00,SSEC-RIG,2013-03-28 19:00:00,
2013-03-28 14:05:00,40.6,13.0,30.29,NNE,15,7.4,-999.0,31,0.00,,,0.00,SSEC-RIG,2013-03-28 19:05:00,
2013-03-28 14:10:00,41.1,13.6,30.28,NNE,18,6.0,-999.0,31,0.00,,,0.00,SSEC-RIG,2013-03-28 19:10:00,
2013-03-28 14:15:00,41.1,14.0,30.28,NNE,22,5.6,-999.0,32,0.00,,,0.00,SSEC-RIG,2013-03-28 19:15:00,
2013-03-28 14:25:00,40.7,14.0,30.28,NNE,16,6.6,-999.0,32,0.00,,,0.00,SSEC-RIG,2013-03-28 19:25:00,
2013-03-28 14:30:00,41.1,14.5,30.28,NNE,19,6.0,-999.0,33,0.00,,,0.00,SSEC-RIG,2013-03-28 19:30:00,
2013-03-28 14:35:00,40.5,14.2,30.28,NNE,15,7.3,-999.0,33,0.00,,,0.00,SSEC-RIG,2013-03-28 19:35:00,
2013-03-28 14:40:00,41.3,14.7,30.28,North,7,6.5,-999.0,33,0.00,,,0.00,SSEC-RIG,2013-03-28 19:40:00,
2013-03-28 14:45:00,41.0,14.7,30.27,NNE,16,7.4,-999.0,33,0.00,,,0.00,SSEC-RIG,2013-03-28 19:45:00,
2013-03-28 14:50:00,40.9,14.8,30.27,NNE,13,6.4,-999.0,33,0.00,,,0.00,SSEC-RIG,2013-03-28 19:50:00,
2013-03-28 14:55:00,41.9,15.2,30.27,North,7,4.7,-999.0,33,0.00,,,0.00,SSEC-RIG,2013-03-28 19:55:00,
2013-03-28 15:00:00,41.8,15.3,30.27,North,7,4.8,-999.0,33,0.00,,,0.00,SSEC-RIG,2013-03-28 20:00:00,
2013-03-28 15:05:00,42.0,15.4,30.27,NNE,17,5.2,-999.0,33,0.00,,,0.00,SSEC-RIG,2013-03-28 20:05:00,
2013-03-28 15:10:00,41.2,15.1,30.27,NNE,18,6.4,-999.0,33,0.00,,,0.00,SSEC-RIG,2013-03-28 20:10:00,
2013-03-28 15:20:00,41.6,15.4,30.27,NNE,13,5.7,-999.0,33,0.00,,,0.00,SSEC-RIG,2013-03-28 20:20:00,
2013-03-28 15:30:00,41.4,15.4,30.26,NNE,18,7.0,-999.0,34,0.00,,,0.00,SSEC-RIG,2013-03-28 20:30:00,
2013-03-28 15:35:00,41.1,15.2,30.26,NNE,27,7.2,-999.0,34,0.00,,,0.00,SSEC-RIG,2013-03-28 20:35:00,
2013-03-28 15:40:00,41.4,15.4,30.26,NNE,21,5.9,-999.0,34,0.00,,,0.00,SSEC-RIG,2013-03-28 20:40:00,
2013-03-28 15:50:00,41.0,15.3,30.25,NNE,26,6.2,-999.0,34,0.00,,,0.00,SSEC-RIG,2013-03-28 20:50:00,
2013-03-28 16:00:00,42.3,16.0,30.25,NNE,16,5.8,-999.0,33,0.00,,,0.00,SSEC-RIG,2013-03-28 21:00:00,
2013-03-28 16:05:00,42.1,15.8,30.25,NNE,15,5.9,-999.0,33,0.00,,,0.00,SSEC-RIG,2013-03-28 21:05:00,
2013-03-28 16:10:00,42.5,16.0,30.25,NNE,15,5.0,-999.0,33,0.00,,,0.00,SSEC-RIG,2013-03-28 21:10:00,
2013-03-28 16:15:00,43.0,16.2,30.25,North,4,5.1,-999.0,33,0.00,,,0.00,SSEC-RIG,2013-03-28 21:15:00,
2013-03-28 16:20:00,42.9,16.3,30.25,NNE,14,4.5,-999.0,33,0.00,,,0.00,SSEC-RIG,2013-03-28 21:20:00,
2013-03-28 16:25:00,43.0,16.1,30.25,NNE,25,4.2,-999.0,33,0.00,,,0.00,SSEC-RIG,2013-03-28 21:25:00,
2013-03-28 16:35:00,42.7,15.9,30.25,NNE,20,5.4,-999.0,33,0.00,,,0.00,SSEC-RIG,2013-03-28 21:35:00,
2013-03-28 16:40:00,43.4,16.3,30.25,North,11,4.5,-999.0,32,0.00,,,0.00,SSEC-RIG,2013-03-28 21:40:00,
2013-03-28 16:45:00,42.9,16.1,30.25,NNE,13,5.2,-999.0,33,0.00,,,0.00,SSEC-RIG,2013-03-28 21:45:00,
2013-03-28 16:50:00,43.4,16.3,30.24,NNE,13,3.2,-999.0,32,0.00,,,0.00,SSEC-RIG,2013-03-28 21:50:00,
2013-03-28 16:55:00,43.2,15.9,30.24,North,3,5.5,-999.0,32,0.00,,,0.00,SSEC-RIG,2013-03-28 21:55:00,
2013-03-28 17:00:00,43.0,16.1,30.24,NNE,13,4.2,-999.0,32,0.00,,,0.00,SSEC-RIG,2013-03-28 22:00:00,
2013-03-28 17:05:00,43.9,16.2,30.24,North,2,3.2,-999.0,31,0.00,,,0.00,SSEC-RIG,2013-03-28 22:05:00,
2013-03-28 17:10:00,42.7,15.7,30.24,NNE,32,4.9,-999.0,32,0.00,,,0.00,SSEC-RIG,2013-03-28 22:10:00,
2013-03-28 17:15:00,42.7,15.8,30.24,NE,34,4.2,-999.0,32,0.00,,,0.00,SSEC-RIG,2013-03-28 22:15:00,
2013-03-28 17:20:00,42.2,15.4,30.24,NE,47,4.9,-999.0,33,0.00,,,0.00,SSEC-RIG,2013-03-28 22:20:00,
2013-03-28 17:25:00,42.7,15.6,30.24,NE,37,3.8,-999.0,32,0.00,,,0.00,SSEC-RIG,2013-03-28 22:25:00,
2013-03-28 17:35:00,42.7,15.5,30.24,NE,45,3.5,-999.0,32,0.00,,,0.00,SSEC-RIG,2013-03-28 22:35:00,
2013-03-28 17:40:00,43.0,15.6,30.24,NNE,28,3.4,-999.0,32,0.00,,,0.00,SSEC-RIG,2013-03-28 22:40:00,
2013-03-28 17:45:00,43.4,15.7,30.24,NE,37,3.1,-999.0,32,0.00,,,0.00,SSEC-RIG,2013-03-28 22:45:00,
2013-03-28 17:50:00,43.0,15.4,30.24,NE,43,3.9,-999.0,32,0.00,,,0.00,SSEC-RIG,2013-03-28 22:50:00,
2013-03-28 17:55:00,43.2,15.7,30.24,NE,35,3.0,-999.0,32,0.00,,,0.00,SSEC-RIG,2013-03-28 22:55:00,
2013-03-28 18:00:00,43.8,16.1,30.24,NE,48,2.4,-999.0,31,0.00,,,0.00,SSEC-RIG,2013-03-28 23:00:00,
2013-03-28 18:10:00,43.0,15.7,30.24,ESE,108,1.6,-999.0,32,0.00,,,0.00,SSEC-RIG,2013-03-28 23:10:00,
2013-03-28 18:15:00,43.1,15.8,30.24,SSE,148,2.3,-999.0,32,0.00,,,0.00,SSEC-RIG,2013-03-28 23:15:00,
2013-03-28 18:20:00,42.5,15.6,30.24,SE,140,3.0,-999.0,33,0.00,,,0.00,SSEC-RIG,2013-03-28 23:20:00,
2013-03-28 18:25:00,42.4,15.6,30.24,SE,125,3.0,-999.0,33,0.00,,,0.00,SSEC-RIG,2013-03-28 23:25:00,
2013-03-28 18:35:00,42.2,15.5,30.24,SE,132,5.3,-999.0,33,0.00,,,0.00,SSEC-RIG,2013-03-28 23:35:00,
2013-03-28 18:40:00,42.0,15.4,30.24,SE,130,5.3,-999.0,33,0.00,,,0.00,SSEC-RIG,2013-03-28 23:40:00,
2013-03-28 18:45:00,42.1,15.7,30.24,SE,129,4.8,-999.0,33,0.00,,,0.00,SSEC-RIG,2013-03-28 23:45:00,
2013-03-28 18:50:00,42.3,16.0,30.24,SSE,148,3.8,-999.0,33,0.00,,,0.00,SSEC-RIG,2013-03-28 23:50:00,
2013-03-28 18:55:00,42.0,15.9,30.24,SE,136,4.8,-999.0,34,0.00,,,0.00,SSEC-RIG,2013-03-28 23:55:00,
2013-03-28 19:00:00,41.8,15.6,30.25,SE,142,5.5,-999.0,33,0.00,,,0.00,SSEC-RIG,2013-03-29 00:00:00,
2013-03-28 19:05:00,41.8,15.8,30.25,SE,139,4.0,-999.0,34,0.00,,,0.00,SSEC-RIG,2013-03-29 00:05:00,
2013-03-28 19:10:00,41.8,15.7,30.24,SE,135,4.9,-999.0,34,0.00,,,0.00,SSEC-RIG,2013-03-29 00:10:00,
2013-03-28 19:15:00,41.6,15.5,30.25,SE,139,5.4,-999.0,34,0.00,,,0.00,SSEC-RIG,2013-03-29 00:15:00,
2013-03-28 19:20:00,41.6,15.9,30.25,SSE,148,3.9,-999.0,34,0.00,,,0.00,SSEC-RIG,2013-03-29 00:20:00,
2013-03-28 19:25:00,41.7,16.0,30.25,SSE,151,3.6,-999.0,34,0.00,,,0.00,SSEC-RIG,2013-03-29 00:25:00,
2013-03-28 19:30:00,41.6,16.0,30.25,SE,145,2.9,-999.0,34,0.00,,,0.00,SSEC-RIG,2013-03-29 00:30:00,
2013-03-28 19:35:00,41.5,16.0,30.25,SSE,147,3.3,-999.0,34,0.00,,,0.00,SSEC-RIG,2013-03-29 00:35:00,
2013-03-28 19:40:00,41.5,16.1,30.25,SSE,150,3.1,-999.0,35,0.00,,,0.00,SSEC-RIG,2013-03-29 00:40:00,
2013-03-28 19:45:00,41.4,16.2,30.25,SSE,153,3.3,-999.0,35,0.00,,,0.00,SSEC-RIG,2013-03-29 00:45:00,
2013-03-28 19:55:00,41.6,16.3,30.25,South,175,5.5,-999.0,35,0.00,,,0.00,SSEC-RIG,2013-03-29 00:55:00,
2013-03-28 20:00:00,41.4,16.3,30.25,South,178,4.7,-999.0,35,0.00,,,0.00,SSEC-RIG,2013-03-29 01:00:00,
2013-03-28 20:05:00,41.4,16.7,30.25,South,187,3.5,-999.0,35,0.00,,,0.00,SSEC-RIG,2013-03-29 01:05:00,
2013-03-28 20:10:00,41.3,16.8,30.25,South,183,3.4,-999.0,36,0.00,,,0.00,SSEC-RIG,2013-03-29 01:10:00,
2013-03-28 20:15:00,41.2,16.9,30.25,South,185,3.4,-999.0,36,0.00,,,0.00,SSEC-RIG,2013-03-29 01:15:00,
2013-03-28 20:20:00,41.0,17.0,30.25,South,185,3.9,-999.0,37,0.00,,,0.00,SSEC-RIG,2013-03-29 01:20:00,
2013-03-28 20:25:00,40.9,17.0,30.25,South,185,3.9,-999.0,37,0.00,,,0.00,SSEC-RIG,2013-03-29 01:25:00,
2013-03-28 20:30:00,40.9,17.2,30.25,South,189,3.3,-999.0,37,0.00,,,0.00,SSEC-RIG,2013-03-29 01:30:00,
2013-03-28 20:35:00,40.7,17.3,30.26,SSW,197,3.8,-999.0,38,0.00,,,0.00,SSEC-RIG,2013-03-29 01:35:00,
2013-03-28 20:40:00,40.5,17.5,30.26,SSW,204,4.6,-999.0,38,0.00,,,0.00,SSEC-RIG,2013-03-29 01:40:00,
2013-03-28 20:50:00,40.8,16.8,30.26,SW,236,4.4,-999.0,37,0.00,,,0.00,SSEC-RIG,2013-03-29 01:50:00,
2013-03-28 20:55:00,41.2,16.3,30.26,WSW,244,4.2,-999.0,35,0.00,,,0.00,SSEC-RIG,2013-03-29 01:55:00,
2013-03-28 21:00:00,41.4,16.2,30.26,WSW,252,4.2,-999.0,35,0.00,,,0.00,SSEC-RIG,2013-03-29 02:00:00,
2013-03-28 21:05:00,41.5,16.2,30.26,WSW,258,3.6,-999.0,35,0.00,,,0.00,SSEC-RIG,2013-03-29 02:05:00,
2013-03-28 21:10:00,41.4,16.4,30.26,West,265,3.7,-999.0,35,0.00,,,0.00,SSEC-RIG,2013-03-29 02:10:00,
2013-03-28 21:15:00,39.8,17.2,30.26,SW,220,4.5,-999.0,39,0.00,,,0.00,SSEC-RIG,2013-03-29 02:15:00,
2013-03-28 21:20:00,40.1,16.9,30.26,SW,235,4.5,-999.0,38,0.00,,,0.00,SSEC-RIG,2013-03-29 02:20:00,
2013-03-28 21:25:00,40.2,17.1,30.26,SW,217,6.0,-999.0,38,0.00,,,0.00,SSEC-RIG,2013-03-29 02:25:00,
2013-03-28 21:30:00,40.3,16.6,30.26,SW,230,6.5,-999.0,37,0.00,,,0.00,SSEC-RIG,2013-03-29 02:30:00,
2013-03-28 21:35:00,40.5,16.6,30.26,WSW,239,6.3,-999.0,37,0.00,,,0.00,SSEC-RIG,2013-03-29 02:35:00,
2013-03-28 21:40:00,40.4,16.8,30.26,WSW,238,6.4,-999.0,37,0.00,,,0.00,SSEC-RIG,2013-03-29 02:40:00,
2013-03-28 21:45:00,40.5,17.4,30.26,WSW,237,6.1,-999.0,38,0.00,,,0.00,SSEC-RIG,2013-03-29 02:45:00,
2013-03-28 21:50:00,40.3,17.7,30.26,SW,233,5.5,-999.0,39,0.00,,,0.00,SSEC-RIG,2013-03-29 02:50:00,
2013-03-28 21:55:00,40.2,17.9,30.26,SW,229,5.6,-999.0,39,0.00,,,0.00,SSEC-RIG,2013-03-29 02:55:00,
2013-03-28 22:00:00,40.1,18.1,30.26,SW,228,5.6,-999.0,40,0.00,,,0.00,SSEC-RIG,2013-03-29 03:00:00,
2013-03-28 22:05:00,39.9,18.7,30.26,SW,232,6.0,-999.0,41,0.00,,,0.00,SSEC-RIG,2013-03-29 03:05:00,
2013-03-28 22:10:00,39.7,18.7,30.26,SW,230,6.4,-999.0,42,0.00,,,0.00,SSEC-RIG,2013-03-29 03:10:00,
2013-03-28 22:15:00,39.4,18.9,30.26,SW,233,6.8,-999.0,42,0.00,,,0.00,SSEC-RIG,2013-03-29 03:15:00,
2013-03-28 22:20:00,39.3,19.0,30.26,SW,233,6.8,-999.0,43,0.00,,,0.00,SSEC-RIG,2013-03-29 03:20:00,
2013-03-28 22:25:00,39.2,19.1,30.26,SW,231,7.0,-999.0,43,0.00,,,0.00,SSEC-RIG,2013-03-29 03:25:00,
2013-03-28 22:35:00,39.6,19.8,30.26,WSW,242,8.1,-999.0,44,0.00,,,0.00,SSEC-RIG,2013-03-29 03:35:00,
2013-03-28 22:40:00,39.5,20.0,30.26,WSW,245,9.1,-999.0,44,0.00,,,0.00,SSEC-RIG,2013-03-29 03:40:00,
2013-03-28 22:45:00,39.9,20.2,30.26,WSW,254,7.9,-999.0,44,0.00,,,0.00,SSEC-RIG,2013-03-29 03:45:00,
2013-03-28 22:50:00,40.0,19.7,30.26,West,262,7.0,-999.0,43,0.00,,,0.00,SSEC-RIG,2013-03-29 03:50:00,
2013-03-28 22:55:00,39.9,19.3,30.26,West,272,6.4,-999.0,42,0.00,,,0.00,SSEC-RIG,2013-03-29 03:55:00,
2013-03-28 23:00:00,39.2,19.4,30.26,West,274,5.0,-999.0,44,0.00,,,0.00,SSEC-RIG,2013-03-29 04:00:00,
2013-03-28 23:05:00,38.8,19.7,30.26,West,266,2.8,-999.0,45,0.00,,,0.00,SSEC-RIG,2013-03-29 04:05:00,
2013-03-28 23:10:00,39.0,19.8,30.26,West,279,2.9,-999.0,45,0.00,,,0.00,SSEC-RIG,2013-03-29 04:10:00,
2013-03-28 23:15:00,39.1,19.3,30.26,WNW,283,2.9,-999.0,44,0.00,,,0.00,SSEC-RIG,2013-03-29 04:15:00,
2013-03-28 23:20:00,38.6,19.5,30.26,West,277,2.2,-999.0,45,0.00,,,0.00,SSEC-RIG,2013-03-29 04:20:00,
2013-03-28 23:25:00,38.6,19.7,30.26,WSW,250,2.1,-999.0,45,0.00,,,0.00,SSEC-RIG,2013-03-29 04:25:00,
2013-03-28 23:35:00,38.7,19.8,30.26,SW,233,2.4,-999.0,45,0.00,,,0.00,SSEC-RIG,2013-03-29 04:35:00,
2013-03-28 23:40:00,38.9,19.8,30.26,WSW,245,2.9,-999.0,45,0.00,,,0.00,SSEC-RIG,2013-03-29 04:40:00,
2013-03-28 23:45:00,39.1,19.9,30.26,WSW,256,4.0,-999.0,45,0.00,,,0.00,SSEC-RIG,2013-03-29 04:45:00,
2013-03-28 23:50:00,38.8,20.0,30.26,West,260,4.8,-999.0,46,0.00,,,0.00,SSEC-RIG,2013-03-29 04:50:00,
2013-03-28 23:55:00,38.9,19.7,30.26,West,259,5.0,-999.0,45,0.00,,,0.00,SSEC-RIG,2013-03-29 04:55:00,